Time;durP1;ratioP1;P1;durP2;ratioP2;P2;SDS_P1;SDS_P2;PMS_P1;PMS_P2;Temp;Humidity;BMP_temperature;BMP_pressure;BME280_temperature;BME280_humidity;BME280_pressure;Samples;Min_cycle;Max_cycle;Signal;HPM_P1;HPM_P2
2022/05/26 00:01:34;;;;;;;6.75;2.72;;;;;;;10.03;53.19;98884.31;5012464;28;20050;-69
2022/05/26 00:04:01;;;;;;;4.80;2.17;;;;;;;10.05;53.02;98887.56;5012706;28;20104;-69
2022/05/26 00:06:29;;;;;;;4.45;2.00;;;;;;;10.03;53.17;98890.69;5013475;28;20418;-70
2022/05/26 00:08:58;;;;;;;4.28;1.90;;;;;;;10.05;52.52;98893.13;5012343;28;20050;-70
2022/05/26 00:11:36;;;;;;;3.42;1.85;;;;;;;9.97;53.52;98888.47;5012641;28;20069;-70
2022/05/26 00:14:09;;;;;;;7.88;2.28;;;;;;;9.91;53.21;98884.28;5012362;28;20516;-68
2022/05/26 00:16:38;;;;;;;5.50;2.00;;;;;;;9.90;53.45;98874.34;5012232;28;20133;-69
2022/05/26 00:19:05;;;;;;;5.03;2.40;;;;;;;9.88;52.83;98871.09;5012889;28;20045;-69
2022/05/26 00:21:32;;;;;;;4.80;2.22;;;;;;;9.89;52.82;98867.97;5012478;28;20054;-69
2022/05/26 00:23:59;;;;;;;4.63;2.22;;;;;;;9.90;52.85;98871.56;5011436;28;20611;-70
2022/05/26 00:26:27;;;;;;;13.38;2.35;;;;;;;9.89;53.45;98867.19;5013281;28;20053;-69
2022/05/26 00:28:54;;;;;;;9.80;2.53;;;;;;;9.88;53.28;98862.75;5016101;28;20124;-69
2022/05/26 00:31:22;;;;;;;5.10;2.08;;;;;;;9.84;52.82;98856.28;5015990;28;20517;-68
2022/05/26 00:33:49;;;;;;;8.27;2.05;;;;;;;9.77;53.72;98847.72;5014700;28;20050;-69
2022/05/26 00:36:37;;;;;;;11.00;2.35;;;;;;;9.75;53.51;98850.84;5014574;28;20061;-69
2022/05/26 00:39:19;;;;;;;10.65;2.63;;;;;;;9.74;53.71;98856.72;5015905;28;20532;-69
2022/05/26 00:41:52;;;;;;;4.75;2.45;;;;;;;9.64;53.48;98849.66;5015590;28;20049;-69
2022/05/26 00:44:20;;;;;;;6.55;2.42;;;;;;;9.62;53.84;98851.94;5015611;28;20042;-69
2022/05/26 00:47:02;;;;;;;4.97;2.22;;;;;;;9.63;53.80;98847.22;5015696;28;20140;-69
2022/05/26 00:49:57;;;;;;;7.20;2.78;;;;;;;9.59;54.02;98846.28;5015837;28;20112;-68
2022/05/26 00:52:31;;;;;;;4.85;2.28;;;;;;;9.63;53.58;98841.66;5015721;28;20045;-70
2022/05/26 00:55:08;;;;;;;5.15;2.47;;;;;;;9.62;53.86;98840.84;5015329;28;20133;-73
2022/05/26 00:57:48;;;;;;;6.82;2.42;;;;;;;9.64;53.43;98840.50;5015515;28;20090;-77
2022/05/26 01:00:17;;;;;;;;;;;;;;;9.55;53.67;98839.78;5017532;28;20413;-74
2022/05/26 01:02:53;;;;;;;8.80;2.25;;;;;;;9.57;53.58;98837.47;5015876;28;19932;-75
2022/05/26 01:05:33;;;;;;;4.85;2.47;;;;;;;9.58;53.81;98836.31;5016614;28;20073;-74
2022/05/26 01:08:01;;;;;;;5.38;2.30;;;;;;;9.55;53.66;98817.56;5015551;28;20064;-74
2022/05/26 01:10:28;;;;;;;6.15;1.90;;;;;;;9.65;53.67;98822.69;5015425;28;20080;-79
2022/05/26 01:12:55;;;;;;;3.17;1.70;;;;;;;9.68;54.01;98822.78;5000573;28;20054;-74
2022/05/26 01:15:23;;;;;;;6.15;2.40;;;;;;;9.66;53.55;98822.34;4995714;28;20050;-74
2022/05/26 01:18:05;;;;;;;3.38;2.00;;;;;;;9.66;53.91;98819.56;4995911;28;20058;-74
2022/05/26 01:20:31;;;;;;;3.88;2.00;;;;;;;9.65;53.99;98822.69;4995132;28;20153;-73
2022/05/26 01:23:17;;;;;;;4.38;2.15;;;;;;;9.65;53.73;98820.72;4995428;28;20057;-74
2022/05/26 01:26:09;;;;;;;6.63;2.05;;;;;;;9.66;53.89;98816.78;5010162;28;20052;-74
2022/05/26 01:28:57;;;;;;;2.97;1.90;;;;;;;9.71;53.58;98808.22;5015488;28;20540;-75
2022/05/26 01:31:40;;;;;;;3.13;1.80;;;;;;;9.79;53.68;98806.50;5015451;28;20144;-75
2022/05/26 01:34:40;;;;;;;11.00;2.25;;;;;;;9.78;53.40;98799.31;5015396;28;20489;-75
2022/05/26 01:37:24;;;;;;;4.93;2.33;;;;;;;9.78;53.71;98799.31;5014839;28;20496;-75
2022/05/26 01:40:06;;;;;;;3.20;1.73;;;;;;;9.77;53.43;98798.50;4993296;28;20145;-75
2022/05/26 01:43:15;;;;;;;4.65;1.88;;;;;;;9.83;53.39;98796.34;4996457;28;20137;-75
2022/05/26 01:46:01;;;;;;;7.68;2.38;;;;;;;9.91;53.72;98803.72;4974089;28;20457;-73
2022/05/26 01:49:06;;;;;;;3.90;1.70;;;;;;;10.00;53.21;98809.97;4995870;28;20062;-79
2022/05/26 01:51:40;;;;;;;6.60;2.28;;;;;;;10.01;52.87;98803.28;4978778;28;20141;-75
2022/05/26 01:54:46;;;;;;;3.42;2.00;;;;;;;9.98;52.85;98806.75;4995096;28;20165;-75
2022/05/26 01:57:18;;;;;;;5.05;2.25;;;;;;;9.93;53.04;98806.97;4995452;28;20058;-79
2022/05/26 01:59:55;;;;;;;10.40;2.45;;;;;;;9.96;52.37;98800.72;4994969;28;20085;-74
2022/05/26 02:02:28;;;;;;;3.92;2.08;;;;;;;10.00;52.60;98808.03;4995872;28;20561;-74
2022/05/26 02:05:07;;;;;;;6.50;2.35;;;;;;;10.00;52.54;98798.88;4994936;28;20065;-78
2022/05/26 02:07:37;;;;;;;3.65;1.63;;;;;;;9.93;52.61;98790.31;4995029;28;20078;-75
2022/05/26 02:10:10;;;;;;;6.35;2.00;;;;;;;9.98;52.67;98804.78;4994736;28;20421;-73
2022/05/26 02:12:45;;;;;;;5.65;2.65;;;;;;;10.06;51.81;98800.25;4994813;28;20452;-75
2022/05/26 02:15:47;;;;;;;3.97;2.08;;;;;;;10.08;52.21;98798.00;4994458;28;20062;-75
2022/05/26 02:18:38;;;;;;;3.65;2.17;;;;;;;10.12;52.26;98785.00;5001222;28;20497;-75
2022/05/26 02:21:10;;;;;;;3.38;1.80;;;;;;;10.17;52.16;98782.00;5014130;28;20171;-74
2022/05/26 02:23:45;;;;;;;4.57;1.80;;;;;;;10.22;52.27;98781.78;5014291;28;20076;-74
2022/05/26 02:26:14;;;;;;;7.88;2.28;;;;;;;10.16;52.60;98774.84;5014101;28;20046;-75
2022/05/26 02:31:29;;;;;;;7.15;2.28;;;;;;;10.13;52.60;98786.66;5013614;28;20046;-75
2022/05/26 02:33:59;;;;;;;9.00;2.20;;;;;;;10.10;52.76;98785.34;5013979;28;20420;-74
2022/05/26 02:36:34;;;;;;;5.00;2.20;;;;;;;10.10;52.84;98774.25;5013694;28;20042;-74
2022/05/26 02:39:01;;;;;;;4.60;1.92;;;;;;;10.12;53.14;98785.00;5014104;28;20169;-74
2022/05/26 02:41:29;;;;;;;6.38;2.22;;;;;;;10.14;52.88;98785.47;5013723;28;20405;-76
2022/05/26 02:43:57;;;;;;;5.03;1.98;;;;;;;10.20;52.46;98784.09;5013061;28;20060;-74
2022/05/26 02:46:54;;;;;;;5.38;2.40;;;;;;;10.28;52.51;98781.22;5013340;28;20049;-69
2022/05/26 02:49:33;;;;;;;5.85;2.50;;;;;;;10.38;51.63;98785.47;5013423;28;20085;-70
2022/05/26 02:52:12;;;;;;;4.38;2.35;;;;;;;10.46;51.70;98781.75;5012878;28;20055;-70
2022/05/26 02:55:23;;;;;;;6.63;2.35;;;;;;;10.48;51.30;98773.88;5013350;28;20077;-68
2022/05/26 02:58:01;;;;;;;3.45;2.05;;;;;;;10.54;51.36;98769.69;4951588;28;20053;-70
2022/05/26 03:01:01;;;;;;;6.38;2.38;;;;;;;10.62;50.87;98774.28;5013084;28;20058;-68
2022/05/26 03:03:45;;;;;;;6.72;2.38;;;;;;;10.69;50.60;98763.41;4993646;28;20052;-74
2022/05/26 03:06:32;;;;;;;8.32;2.42;;;;;;;10.81;50.65;98761.38;4992107;28;20052;-73
2022/05/26 03:09:00;;;;;;;4.05;2.80;;;;;;;10.88;50.48;98761.59;4993496;28;20105;-69
2022/05/26 03:11:27;;;;;;;5.15;2.55;;;;;;;10.95;50.25;98760.97;4993356;28;20060;-71
2022/05/26 03:13:55;;;;;;;4.35;2.10;;;;;;;11.05;50.36;98764.03;4993873;28;20050;-69
2022/05/26 03:16:22;;;;;;;5.18;2.33;;;;;;;11.09;49.61;98756.63;4993416;28;20038;-74
2022/05/26 03:18:49;;;;;;;4.28;2.40;;;;;;;11.10;50.15;98752.66;4992151;28;20050;-70
2022/05/26 03:21:17;;;;;;;5.15;2.50;;;;;;;11.14;50.17;98750.00;4992164;28;20042;-71
2022/05/26 03:23:43;;;;;;;5.47;1.77;;;;;;;11.18;49.88;98736.97;4993329;28;20137;-74
2022/05/26 03:26:10;;;;;;;6.78;2.22;;;;;;;11.22;50.02;98748.22;4991760;28;20046;-72
2022/05/26 03:28:37;;;;;;;3.75;1.92;;;;;;;11.17;49.16;98740.13;4993258;28;20105;-70
2022/05/26 03:31:07;;;;;;;5.10;2.33;;;;;;;11.25;49.67;98748.28;4993199;28;20058;-69
2022/05/26 03:40:46;;;;;;;5.97;2.47;;;;;;;11.28;49.73;98742.00;4993746;28;20058;-73
2022/05/26 03:41:54;;;;;;;6.57;2.65;;;;;;;11.55;49.35;98723.66;4993153;28;20078;-70
2022/05/26 03:44:22;;;;;;;5.47;2.13;;;;;;;11.64;48.98;98711.19;4993370;28;20138;-69
2022/05/26 03:46:49;;;;;;;7.20;2.33;;;;;;;11.64;48.89;98713.97;4992882;28;20051;-68
2022/05/26 03:49:17;;;;;;;5.43;2.28;;;;;;;11.64;48.71;98722.34;4993487;28;20046;-69
2022/05/26 03:51:43;;;;;;;7.28;2.55;;;;;;;11.66;48.96;98719.19;5004706;28;20054;-71
2022/05/26 03:54:11;;;;;;;10.43;2.67;;;;;;;11.75;48.40;98712.25;5012800;28;20077;-69
2022/05/26 03:56:38;;;;;;;8.88;2.50;;;;;;;11.92;48.75;98711.06;5012376;28;20184;-69
2022/05/26 03:59:05;;;;;;;8.38;3.20;;;;;;;12.05;47.95;98712.59;5011425;28;20149;-69
2022/05/26 04:01:33;;;;;;;4.97;2.67;;;;;;;12.10;47.68;98713.09;5013114;28;20050;-69
2022/05/26 04:04:00;;;;;;;4.53;2.53;;;;;;;12.13;47.87;98708.78;5016617;28;20152;-69
2022/05/26 04:06:28;;;;;;;8.98;2.60;;;;;;;12.23;47.77;98702.66;5016407;28;20046;-70
2022/05/26 04:08:55;;;;;;;5.05;2.97;;;;;;;12.19;48.04;98702.56;5016559;28;20053;-69
2022/05/26 04:11:23;;;;;;;3.83;2.33;;;;;;;12.16;47.84;98692.13;5016428;28;20140;-69
2022/05/26 04:13:52;;;;;;;4.10;2.28;;;;;;;12.09;47.69;98694.78;5016496;28;20045;-70
2022/05/26 04:16:23;;;;;;;6.90;2.92;;;;;;;12.06;48.36;98689.94;5016153;28;20046;-68
2022/05/26 04:18:53;;;;;;;3.97;2.45;;;;;;;12.11;48.27;98686.84;5016383;28;20050;-69
2022/05/26 04:21:20;;;;;;;9.30;2.58;;;;;;;12.15;47.95;98690.53;5016246;28;20058;-70
2022/05/26 04:23:47;;;;;;;5.53;2.42;;;;;;;12.25;47.95;98672.41;5016047;28;20052;-69
2022/05/26 04:26:14;;;;;;;4.30;2.53;;;;;;;12.34;47.83;98668.25;5016306;28;20050;-69
2022/05/26 04:28:41;;;;;;;8.52;2.33;;;;;;;12.53;47.48;98668.25;5016182;28;20054;-69
2022/05/26 04:31:08;;;;;;;6.60;2.85;;;;;;;12.62;47.01;98670.84;5015963;28;20141;-69
2022/05/26 04:33:36;;;;;;;7.10;2.50;;;;;;;12.64;47.42;98663.72;5016180;28;20567;-70
2022/05/26 04:36:04;;;;;;;8.50;2.50;;;;;;;12.70;47.13;98665.03;5015699;28;20077;-70
2022/05/26 04:38:32;;;;;;;5.13;2.88;;;;;;;12.86;46.54;98674.16;5002654;28;20373;-69
2022/05/26 04:41:02;;;;;;;7.63;2.75;;;;;;;12.94;46.24;98664.72;4996016;28;20073;-69
2022/05/26 04:43:31;;;;;;;4.30;2.20;;;;;;;13.02;46.14;98659.31;4996113;28;20132;-70
2022/05/26 04:45:58;;;;;;;6.72;2.80;;;;;;;13.10;45.91;98661.03;4996245;28;20074;-71
2022/05/26 04:48:25;;;;;;;3.60;2.15;;;;;;;13.23;45.53;98659.72;4996148;28;20133;-69
2022/05/26 04:50:54;;;;;;;4.40;2.42;;;;;;;13.27;45.30;98652.19;4996101;28;20133;-69
2022/05/26 04:53:21;;;;;;;6.43;2.33;;;;;;;13.48;44.63;98649.78;4996111;28;20058;-69
2022/05/26 04:55:54;;;;;;;7.35;2.53;;;;;;;13.81;44.41;98652.72;4995873;28;20078;-70
2022/05/26 04:58:21;;;;;;;6.43;2.35;;;;;;;14.11;44.12;98645.19;4995787;28;20141;-70
2022/05/26 05:00:48;;;;;;;8.85;2.67;;;;;;;14.37;43.54;98631.19;4995979;28;20157;-70
2022/05/26 05:03:15;;;;;;;6.85;2.72;;;;;;;14.57;43.40;98635.47;4995744;28;20518;-68
2022/05/26 05:05:42;;;;;;;6.00;2.72;;;;;;;14.73;42.63;98644.44;4996173;28;20058;-70
2022/05/26 05:08:09;;;;;;;15.30;2.80;;;;;;;14.83;42.34;98648.56;4995684;28;20060;-69
2022/05/26 05:10:36;;;;;;;6.95;2.65;;;;;;;14.85;42.33;98640.56;4995588;28;20077;-69
2022/05/26 05:13:03;;;;;;;7.18;2.95;;;;;;;14.98;42.19;98642.72;4994771;28;20133;-70
2022/05/26 05:15:41;;;;;;;6.10;3.10;;;;;;;15.07;41.43;98646.03;4995366;28;20046;-69
2022/05/26 05:18:08;;;;;;;5.72;2.75;;;;;;;15.02;42.08;98638.00;4995913;28;20050;-70
2022/05/26 05:20:37;;;;;;;4.07;2.55;;;;;;;15.20;41.69;98638.97;4995553;28;20055;-70
2022/05/26 05:23:09;;;;;;;9.52;2.88;;;;;;;15.65;41.42;98641.44;4995482;28;20082;-69
2022/05/26 05:25:39;;;;;;;4.70;2.30;;;;;;;16.12;40.52;98641.38;4994354;28;20414;-71
2022/05/26 05:28:12;;;;;;;8.68;3.80;;;;;;;16.51;39.67;98643.63;5008755;28;20556;-69
2022/05/26 05:30:48;;;;;;;4.65;2.70;;;;;;;16.86;39.28;98643.78;5015239;28;20060;-69
2022/05/26 05:33:34;;;;;;;4.53;2.42;;;;;;;17.06;38.52;98636.63;5013433;28;20054;-70
2022/05/26 05:36:13;;;;;;;5.47;2.60;;;;;;;17.33;38.47;98632.28;5014842;28;20476;-69
2022/05/26 05:38:40;;;;;;;6.38;2.45;;;;;;;17.59;38.15;98637.56;5014690;28;20042;-69
2022/05/26 05:41:08;;;;;;;6.57;2.72;;;;;;;17.70;37.64;98632.72;5013325;28;20060;-69
2022/05/26 05:43:36;;;;;;;6.13;3.28;;;;;;;17.85;37.71;98634.31;5015040;28;20061;-69
2022/05/26 05:46:04;;;;;;;9.60;2.30;;;;;;;18.05;37.27;98629.91;5014652;28;20049;-69
2022/05/26 05:48:31;;;;;;;10.75;3.35;;;;;;;18.35;36.80;98632.28;5014545;28;20129;-70
2022/05/26 05:50:58;;;;;;;10.18;2.70;;;;;;;18.67;36.04;98630.97;5014594;28;20076;-69
2022/05/26 05:53:26;;;;;;;6.38;2.60;;;;;;;18.93;35.52;98616.38;5014440;28;20057;-68
2022/05/26 05:55:53;;;;;;;4.72;2.58;;;;;;;19.27;35.12;98623.03;5014188;28;20053;-69
2022/05/26 05:58:20;;;;;;;5.22;2.97;;;;;;;19.80;34.74;98626.28;5014592;28;20129;-69
2022/05/26 06:00:47;;;;;;;4.88;2.72;;;;;;;20.26;33.83;98627.91;5009017;28;20046;-69
2022/05/26 06:03:14;;;;;;;7.68;2.92;;;;;;;21.51;32.05;98616.22;4993295;28;20104;-70
2022/05/26 06:05:41;;;;;;;9.98;2.92;;;;;;;24.59;27.30;98617.34;4993893;28;20086;-68
2022/05/26 06:08:08;;;;;;;5.60;2.55;;;;;;;28.56;22.57;98605.19;4994703;28;20104;-69
2022/05/26 06:10:35;;;;;;;3.72;2.10;;;;;;;31.49;19.08;98608.84;4994551;28;20088;-69
2022/05/26 06:13:01;;;;;;;8.25;2.45;;;;;;;32.04;17.97;98606.13;4994731;28;20565;-69
2022/05/26 06:15:29;;;;;;;5.00;2.50;;;;;;;30.13;19.22;98605.47;4994509;28;20065;-69
2022/05/26 06:17:59;;;;;;;11.27;3.13;;;;;;;28.09;20.69;98606.34;5009455;28;20104;-69
2022/05/26 06:20:26;;;;;;;8.32;3.28;;;;;;;27.32;21.56;98606.63;5014144;28;20104;-70
2022/05/26 06:22:53;;;;;;;9.07;2.80;;;;;;;26.83;22.04;98604.84;5014231;28;20054;-69
2022/05/26 06:25:20;;;;;;;7.15;2.85;;;;;;;25.42;23.21;98597.44;4994197;28;20141;-69
2022/05/26 06:30:33;;;;;;;6.10;2.30;;;;;;;22.15;27.20;98605.47;4994213;28;20050;-68
2022/05/26 06:38:43;;;;;;;12.45;2.55;;;;;;;22.80;26.21;98584.75;4994116;28;20500;-70
2022/05/26 06:43:59;;;;;;;27.50;3.08;;;;;;;21.99;27.19;98574.19;4994002;28;20413;-69
2022/05/26 06:46:26;;;;;;;394.00;31.40;;;;;;;22.81;26.26;98574.22;4993782;28;20042;-69
2022/05/26 06:48:53;;;;;;;23.45;3.15;;;;;;;24.41;24.63;98579.25;4993785;28;20100;-70
2022/05/26 06:51:22;;;;;;;8.07;3.13;;;;;;;25.80;23.25;98573.38;4993477;28;20058;-69
2022/05/26 06:53:49;;;;;;;13.47;3.40;;;;;;;28.55;20.22;98563.50;4993777;28;20089;-70
2022/05/26 06:56:16;;;;;;;10.90;2.45;;;;;;;33.04;16.02;98577.38;4993085;28;20418;-70
2022/05/26 06:58:43;;;;;;;10.13;3.58;;;;;;;36.89;13.41;98561.09;4992776;28;20060;-69
2022/05/26 07:01:14;;;;;;;7.03;2.60;;;;;;;39.53;11.38;98567.16;5002322;28;20096;-70
2022/05/26 07:03:43;;;;;;;16.77;2.72;;;;;;;40.99;10.47;98564.69;5013045;28;20041;-70
2022/05/26 07:06:14;;;;;;;11.68;2.97;;;;;;;42.96;9.45;98560.16;5013085;28;20449;-69
2022/05/26 07:08:41;;;;;;;10.13;2.13;;;;;;;44.22;8.37;98558.13;5011625;28;20056;-70
2022/05/26 07:11:08;;;;;;;14.75;2.78;;;;;;;45.05;7.52;98561.00;5013086;28;20049;-70
2022/05/26 07:13:35;;;;;;;4.65;2.00;;;;;;;44.97;7.57;98547.66;5013186;28;20461;-70
2022/05/26 07:16:02;;;;;;;7.80;2.22;;;;;;;44.52;7.40;98545.63;5011466;28;20049;-70
2022/05/26 07:18:29;;;;;;;5.03;1.53;;;;;;;43.86;7.94;98556.75;5013126;28;20387;-72
2022/05/26 07:20:56;;;;;;;6.45;2.30;;;;;;;44.50;7.09;98551.28;5006841;28;20540;-69
2022/05/26 07:23:23;;;;;;;13.32;2.20;;;;;;;45.53;6.70;98544.91;5012704;28;20056;-69
2022/05/26 07:25:50;;;;;;;10.57;2.05;;;;;;;46.40;6.39;98540.91;5013167;28;20112;-69
2022/05/26 07:28:17;;;;;;;4.75;2.40;;;;;;;47.92;5.58;98542.19;5012834;28;20046;-70
2022/05/26 07:30:44;;;;;;;8.00;2.33;;;;;;;49.02;5.33;98533.31;5012774;28;20072;-70
2022/05/26 07:33:11;;;;;;;6.22;2.30;;;;;;;49.23;5.11;98535.63;5011575;28;20049;-69
2022/05/26 07:35:38;;;;;;;5.78;2.20;;;;;;;48.21;5.46;98540.09;5012560;28;20056;-68
2022/05/26 07:43:38;;;;;;;4.18;2.30;;;;;;;52.14;4.03;98526.63;5012626;28;20049;-70
2022/05/26 07:46:06;;;;;;;;;;;;;;;51.26;4.62;98514.84;5013052;28;20058;-70
2022/05/26 07:48:33;;;;;;;10.50;2.65;;;;;;;50.50;4.27;98516.19;5012644;28;19976;-70
2022/05/26 07:51:00;;;;;;;3.25;2.08;;;;;;;49.86;3.99;98524.13;5012635;28;20420;-69
2022/05/26 07:53:27;;;;;;;5.32;2.00;;;;;;;49.78;4.35;98505.03;5012661;28;20042;-69
2022/05/26 07:55:54;;;;;;;5.50;2.00;;;;;;;50.49;3.97;98508.75;5012515;28;20061;-69
2022/05/26 07:58:21;;;;;;;5.53;2.45;;;;;;;50.85;3.64;98506.13;5012438;28;20052;-70
2022/05/26 08:00:49;;;;;;;4.45;2.05;;;;;;;50.25;3.72;98501.06;5012085;28;20054;-69
2022/05/26 08:03:16;;;;;;;5.00;2.38;;;;;;;48.43;4.76;98500.59;5012580;28;20046;-69
2022/05/26 08:05:44;;;;;;;3.90;2.25;;;;;;;47.24;5.01;98492.28;5012362;28;20054;-70
2022/05/26 08:08:11;;;;;;;8.18;2.38;;;;;;;47.31;5.00;98495.13;5012455;28;20092;-69
2022/05/26 08:10:39;;;;;;;5.43;2.03;;;;;;;45.00;5.99;98494.44;5012371;28;20501;-69
2022/05/26 08:13:06;;;;;;;5.90;2.20;;;;;;;41.72;7.43;98476.94;5012636;28;20050;-70
2022/05/26 08:15:34;;;;;;;5.70;1.90;;;;;;;39.51;8.08;98470.81;5012444;28;20073;-69
2022/05/26 08:18:01;;;;;;;18.83;2.55;;;;;;;37.86;9.19;98481.75;5012487;28;20050;-70
2022/05/26 08:20:28;;;;;;;4.05;2.08;;;;;;;37.77;9.68;98479.22;5012392;28;20058;-69
2022/05/26 08:22:55;;;;;;;3.72;1.90;;;;;;;39.76;8.64;98469.28;5010834;28;20152;-71
2022/05/26 08:25:23;;;;;;;7.25;2.05;;;;;;;41.07;7.74;98470.03;5012967;28;20080;-70
2022/05/26 08:27:50;;;;;;;7.22;2.05;;;;;;;44.78;6.11;98460.81;5012587;28;20136;-68
2022/05/26 08:30:17;;;;;;;4.78;1.65;;;;;;;47.86;5.36;98462.78;5010098;28;20438;-68
2022/05/26 08:32:44;;;;;;;3.88;2.72;;;;;;;50.04;4.08;98457.41;4993065;28;20050;-69
2022/05/26 08:35:12;;;;;;;3.50;1.70;;;;;;;51.17;3.69;98453.44;4991966;28;20054;-68
2022/05/26 08:37:39;;;;;;;5.75;2.17;;;;;;;51.67;3.50;98460.53;4992586;28;20054;-69
2022/05/26 08:40:08;;;;;;;4.28;2.08;;;;;;;52.63;3.39;98459.19;5007227;28;20061;-71
2022/05/26 08:42:35;;;;;;;3.55;2.00;;;;;;;53.32;2.53;98453.75;5012650;28;20140;-70
2022/05/26 08:45:10;;;;;;;3.75;2.10;;;;;;;53.55;2.65;98447.66;5012135;28;20054;-71
2022/05/26 08:47:43;;;;;;;4.47;2.20;;;;;;;52.14;3.40;98444.28;5012181;28;20049;-71
2022/05/26 08:50:16;;;;;;;4.35;2.15;;;;;;;50.80;3.69;98444.25;5015130;28;20136;-69
2022/05/26 08:53:01;;;;;;;4.47;1.90;;;;;;;51.14;3.85;98449.56;5015407;28;20092;-69
2022/05/26 08:55:50;;;;;;;4.45;1.80;;;;;;;50.33;3.85;98436.53;5015281;28;20061;-69
2022/05/26 08:58:21;;;;;;;4.28;1.80;;;;;;;50.81;3.73;98428.03;5015331;28;20473;-69
2022/05/26 09:00:51;;;;;;;3.05;2.08;;;;;;;51.46;3.42;98439.84;5015403;28;20046;-69
2022/05/26 09:03:26;;;;;;;6.65;1.98;;;;;;;52.77;3.01;98427.38;5015203;28;20505;-69
2022/05/26 09:06:04;;;;;;;3.88;2.08;;;;;;;53.91;2.28;98425.13;5014978;28;20042;-69
2022/05/26 09:14:41;;;;;;;3.47;2.00;;;;;;;53.32;2.88;98411.31;4995756;28;20054;-69
2022/05/26 09:17:11;;;;;;;2.88;1.80;;;;;;;51.23;3.29;98404.19;4983549;28;20058;-70
2022/05/26 09:19:43;;;;;;;6.05;2.03;;;;;;;45.90;4.97;98411.53;4995547;28;20124;-70
2022/05/26 09:22:30;;;;;;;5.93;1.92;;;;;;;41.55;7.16;98401.44;4995461;28;20042;-70
2022/05/26 09:24:59;;;;;;;4.00;1.65;;;;;;;42.35;6.65;98397.31;4995545;28;20058;-70
2022/05/26 09:27:30;;;;;;;58.60;4.95;;;;;;;42.52;6.45;98389.63;4995276;28;20058;-70
2022/05/26 09:30:17;;;;;;;19.90;3.03;;;;;;;43.28;5.71;98389.84;4995083;28;20058;-70
2022/05/26 09:32:45;;;;;;;12.15;1.80;;;;;;;43.40;6.09;98385.94;4995115;28;20050;-71
2022/05/26 09:35:28;;;;;;;3.72;2.03;;;;;;;40.88;7.07;98386.94;4994013;28;20092;-69
2022/05/26 09:38:00;;;;;;;4.97;2.22;;;;;;;37.47;8.93;98379.75;4994167;28;20042;-72
2022/05/26 09:40:34;;;;;;;8.15;3.88;;;;;;;35.45;9.99;98375.38;4994989;28;20532;-73
2022/05/26 09:43:23;;;;;;;3.17;1.50;;;;;;;33.35;10.95;98366.94;4995251;28;20510;-71
2022/05/26 09:45:57;;;;;;;8.75;1.63;;;;;;;31.66;12.02;98364.69;5001731;28;20052;-71
2022/05/26 09:48:31;;;;;;;10.18;2.17;;;;;;;30.81;12.74;98357.38;5014446;28;20412;-70
2022/05/26 09:51:07;;;;;;;5.20;2.53;;;;;;;30.20;13.43;98355.50;5014240;28;20058;-70
2022/05/26 09:53:40;;;;;;;3.53;1.55;;;;;;;29.74;13.47;98355.09;5014317;28;20180;-72
2022/05/26 09:56:10;;;;;;;8.73;1.85;;;;;;;29.41;13.75;98351.50;5009514;28;20136;-70
2022/05/26 09:58:42;;;;;;;3.40;1.60;;;;;;;28.90;14.15;98356.53;4994017;28;20149;-70
2022/05/26 10:01:35;;;;;;;5.18;1.80;;;;;;;28.34;14.32;98359.25;4994111;28;20054;-75
2022/05/26 10:04:14;;;;;;;3.65;1.70;;;;;;;27.93;14.58;98359.94;4995066;28;20112;-70
2022/05/26 10:06:56;;;;;;;4.65;1.70;;;;;;;27.29;15.35;98358.28;4994690;28;20410;-70
2022/05/26 10:09:53;;;;;;;3.97;1.90;;;;;;;26.62;15.85;98347.56;4994787;28;20108;-70
2022/05/26 10:12:42;;;;;;;5.25;2.03;;;;;;;26.36;16.42;98337.59;4994862;28;20054;-70
2022/05/26 10:15:18;;;;;;;5.72;1.80;;;;;;;25.77;16.63;98339.84;4994346;28;20050;-70
2022/05/26 10:18:12;;;;;;;8.93;2.80;;;;;;;25.83;16.75;98333.09;5002118;28;20091;-70
2022/05/26 10:20:46;;;;;;;3.85;1.60;;;;;;;25.91;17.15;98334.44;4991008;28;20058;-70
2022/05/26 10:23:36;;;;;;;3.03;1.60;;;;;;;25.53;17.34;98324.47;5014236;28;20104;-75
2022/05/26 10:26:24;;;;;;;4.82;2.03;;;;;;;25.18;17.72;98317.97;5013487;28;20056;-70
2022/05/26 10:29:17;;;;;;;3.78;1.80;;;;;;;25.04;18.06;98332.66;5013413;28;20517;-72
2022/05/26 10:32:02;;;;;;;19.48;7.45;;;;;;;24.70;18.12;98312.69;5013564;28;20054;-70
2022/05/26 10:34:47;;;;;;;4.40;1.80;;;;;;;24.82;18.50;98318.38;5014060;28;20129;-71
2022/05/26 10:37:32;;;;;;;3.58;1.83;;;;;;;24.95;18.16;98321.19;5013373;28;20096;-70
2022/05/26 10:40:28;;;;;;;6.55;1.83;;;;;;;24.78;18.55;98314.06;5012407;28;20508;-71
2022/05/26 10:42:58;;;;;;;4.55;2.00;;;;;;;24.45;19.20;98319.16;5013423;28;20136;-70
2022/05/26 10:45:47;;;;;;;3.20;1.70;;;;;;;24.34;19.30;98315.06;5013084;28;20045;-71
2022/05/26 10:48:42;;;;;;;4.05;2.10;;;;;;;24.33;19.20;98296.41;5010182;28;20064;-70
2022/05/26 10:51:29;;;;;;;4.05;1.92;;;;;;;24.39;19.29;98297.47;5012779;28;20100;-70
2022/05/26 10:54:11;;;;;;;6.55;1.90;;;;;;;24.52;19.45;98296.19;5013255;28;20468;-71
2022/05/26 10:56:50;;;;;;;11.18;2.00;;;;;;;24.49;19.33;98287.78;5013000;28;20588;-70
2022/05/26 10:59:22;;;;;;;7.15;1.80;;;;;;;24.34;19.48;98290.25;5013565;28;20140;-70
2022/05/26 11:01:58;;;;;;;3.05;1.90;;;;;;;24.41;19.58;98287.22;5013344;28;20050;-71
2022/05/26 11:04:42;;;;;;;6.65;1.90;;;;;;;24.45;19.42;98272.88;5011838;28;20156;-70
2022/05/26 11:07:28;;;;;;;8.40;2.22;;;;;;;24.41;19.63;98269.34;5012941;28;20073;-69
2022/05/26 11:10:02;;;;;;;6.93;1.98;;;;;;;24.40;19.77;98264.91;5013009;28;20045;-71
2022/05/26 11:12:39;;;;;;;4.93;2.08;;;;;;;24.33;19.86;98262.28;5012248;28;20053;-71
2022/05/26 11:18:15;;;;;;;4.13;2.65;;;;;;;24.30;19.76;98263.19;5013466;28;20049;-71
2022/05/26 11:20:50;;;;;;;8.57;1.90;;;;;;;24.27;20.10;98256.38;5014347;28;20145;-69
2022/05/26 11:23:18;;;;;;;3.05;1.50;;;;;;;24.16;20.23;98260.84;5015236;28;20049;-71
2022/05/26 11:25:51;;;;;;;16.13;1.88;;;;;;;23.85;20.75;98257.69;5012799;28;20054;-71
2022/05/26 11:28:31;;;;;;;3.63;2.00;;;;;;;23.42;21.20;98250.88;5012714;28;20524;-70
2022/05/26 11:36:49;;;;;;;7.57;2.13;;;;;;;23.19;21.17;98249.06;5012276;28;20092;-70
2022/05/26 11:39:28;;;;;;;4.32;2.03;;;;;;;23.12;21.25;98244.38;5013398;28;20500;-71
2022/05/26 11:42:02;;;;;;;3.67;1.70;;;;;;;23.07;21.16;98233.56;5011130;28;20045;-71
2022/05/26 11:44:44;;;;;;;7.40;2.20;;;;;;;22.95;21.52;98236.38;5011183;28;20161;-71
2022/05/26 11:47:23;;;;;;;3.25;1.83;;;;;;;22.89;21.45;98230.44;5012190;28;20054;-70
2022/05/26 11:49:53;;;;;;;5.17;1.80;;;;;;;22.96;21.52;98224.59;5012713;28;20054;-71
2022/05/26 11:52:37;;;;;;;7.95;2.15;;;;;;;23.10;21.43;98212.84;5012666;28;20140;-71
2022/05/26 11:55:16;;;;;;;3.17;1.85;;;;;;;23.42;21.35;98212.72;5012690;28;20465;-71
2022/05/26 11:57:43;;;;;;;3.50;2.00;;;;;;;23.56;21.09;98210.75;5012343;28;20061;-71
2022/05/26 12:00:30;;;;;;;3.88;1.77;;;;;;;23.53;21.21;98203.13;5012593;28;20045;-70
2022/05/26 12:03:30;;;;;;;5.00;2.13;;;;;;;23.54;21.49;98201.88;5011511;28;20050;-70
2022/05/26 12:06:04;;;;;;;6.20;2.00;;;;;;;23.49;21.53;98199.56;4969962;28;20062;-70
2022/05/26 12:08:39;;;;;;;4.00;1.95;;;;;;;23.37;21.63;98192.63;5009591;28;20408;-69
2022/05/26 12:11:09;;;;;;;3.15;1.92;;;;;;;23.43;21.95;98205.03;5012191;28;20140;-70
2022/05/26 12:13:39;;;;;;;3.03;1.85;;;;;;;23.36;21.84;98179.69;5011835;28;20050;-73
2022/05/26 12:16:18;;;;;;;3.65;1.77;;;;;;;23.33;21.69;98175.69;5011525;28;20053;-74
2022/05/26 12:19:00;;;;;;;9.68;1.83;;;;;;;23.27;21.80;98171.81;5000893;28;20581;-72
2022/05/26 12:21:27;;;;;;;3.47;1.70;;;;;;;23.15;22.27;98169.72;5010223;28;20535;-73
2022/05/26 12:24:15;;;;;;;7.75;1.95;;;;;;;23.01;22.35;98167.28;5014435;28;20042;-72
2022/05/26 12:26:51;;;;;;;7.88;1.95;;;;;;;22.86;22.79;98163.25;5010577;28;20073;-71
2022/05/26 12:29:54;;;;;;;4.50;2.10;;;;;;;22.65;22.86;98146.84;5015716;28;20050;-72
2022/05/26 12:32:27;;;;;;;14.85;2.28;;;;;;;22.60;23.23;98155.91;4953527;28;20055;-78
2022/05/26 12:35:06;;;;;;;456.55;30.45;;;;;;;22.60;23.44;98143.75;4954936;28;20090;-74
2022/05/26 12:38:01;;;;;;;6.20;1.83;;;;;;;22.57;23.41;98139.78;4955602;28;20533;-73
2022/05/26 12:40:47;;;;;;;3.80;1.80;;;;;;;22.33;23.64;98135.56;4928288;29;20302;-73
2022/05/26 12:43:33;;;;;;;2.78;1.83;;;;;;;22.30;23.93;98130.78;4954721;28;20106;-72
2022/05/26 12:46:37;;;;;;;7.20;2.35;;;;;;;22.13;24.20;98136.88;4954019;29;20051;-76
2022/05/26 12:49:07;;;;;;;5.00;1.80;;;;;;;21.94;24.05;98123.63;4954589;29;20043;-72